sensor_id;sensor_type;location;lat;lon;timestamp;pressure;altitude;pressure_sealevel;temperature;humidity
7182;BME280;3632;42.724;23.298;2023-05-11T00:01:50;95402.38;;;10.24;83.20
7182;BME280;3632;42.724;23.298;2023-05-11T00:04:17;95615.41;;;11.28;84.15
7182;BME280;3632;42.724;23.298;2023-05-11T00:06:44;95578.53;;;11.32;83.73
7182;BME280;3632;42.724;23.298;2023-05-11T00:09:11;95581.09;;;11.32;83.01
7182;BME280;3632;42.724;23.298;2023-05-11T00:11:39;95583.63;;;11.32;83.36
7182;BME280;3632;42.724;23.298;2023-05-11T00:14:06;95549.78;;;10.97;83.48
7182;BME280;3632;42.724;23.298;2023-05-11T00:16:33;95588.72;;;11.21;84.17
7182;BME280;3632;42.724;23.298;2023-05-11T00:19:00;95639.50;;;11.02;83.89
7182;BME280;3632;42.724;23.298;2023-05-11T00:21:26;95328.28;;;9.13;84.04
7182;BME280;3632;42.724;23.298;2023-05-11T00:23:53;95674.22;;;11.16;82.75
7182;BME280;3632;42.724;23.298;2023-05-11T00:26:20;95638.56;;;10.92;83.20
7182;BME280;3632;42.724;23.298;2023-05-11T00:28:49;95587.59;;;11.03;83.62
7182;BME280;3632;42.724;23.298;2023-05-11T00:31:15;95588.72;;;10.99;83.39
7182;BME280;3632;42.724;23.298;2023-05-11T00:33:42;95175.78;;;8.43;82.28
7182;BME280;3632;42.724;23.298;2023-05-11T00:36:09;95517.97;;;10.45;83.02
7182;BME280;3632;42.724;23.298;2023-05-11T00:38:36;95464.16;;;10.15;82.88
7182;BME280;3632;42.724;23.298;2023-05-11T00:41:05;95581.16;;;10.86;82.61
7182;BME280;3632;42.724;23.298;2023-05-11T00:43:32;95580.44;;;10.62;82.94
7182;BME280;3632;42.724;23.298;2023-05-11T00:46:01;95589.38;;;10.68;82.93
7182;BME280;3632;42.724;23.298;2023-05-11T00:48:29;95604.09;;;10.75;82.04
7182;BME280;3632;42.724;23.298;2023-05-11T00:50:58;95581.97;;;10.76;82.28
7182;BME280;3632;42.724;23.298;2023-05-11T00:53:25;95520.69;;;10.31;81.47
7182;BME280;3632;42.724;23.298;2023-05-11T00:55:52;95591.22;;;10.66;82.28
7182;BME280;3632;42.724;23.298;2023-05-11T00:58:19;95590.28;;;10.56;82.88
7182;BME280;3632;42.724;23.298;2023-05-11T01:00:46;95523.47;;;10.17;82.58
7182;BME280;3632;42.724;23.298;2023-05-11T01:03:15;95601.88;;;10.71;82.13
7182;BME280;3632;42.724;23.298;2023-05-11T01:05:45;95588.31;;;10.70;81.70
7182;BME280;3632;42.724;23.298;2023-05-11T01:08:17;95583.13;;;10.72;81.51
7182;BME280;3632;42.724;23.298;2023-05-11T01:10:48;95594.16;;;10.37;81.13
7182;BME280;3632;42.724;23.298;2023-05-11T01:13:26;95557.09;;;10.44;80.36
7182;BME280;3632;42.724;23.298;2023-05-11T01:15:56;95582.63;;;10.56;80.84
7182;BME280;3632;42.724;23.298;2023-05-11T01:18:28;95597.94;;;10.56;80.48
7182;BME280;3632;42.724;23.298;2023-05-11T01:21:01;95588.22;;;10.61;80.51
7182;BME280;3632;42.724;23.298;2023-05-11T01:23:43;95624.84;;;10.71;80.33
7182;BME280;3632;42.724;23.298;2023-05-11T01:29:42;95599.09;;;10.63;79.80
7182;BME280;3632;42.724;23.298;2023-05-11T01:32:17;95598.53;;;10.70;79.32
7182;BME280;3632;42.724;23.298;2023-05-11T01:34:45;95601.88;;;10.71;79.08
7182;BME280;3632;42.724;23.298;2023-05-11T01:37:16;95274.06;;;8.30;79.04
7182;BME280;3632;42.724;23.298;2023-05-11T01:39:49;95571.97;;;10.62;79.78
7182;BME280;3632;42.724;23.298;2023-05-11T01:42:19;95600.97;;;10.72;78.50
7182;BME280;3632;42.724;23.298;2023-05-11T01:44:50;95621.84;;;10.77;78.76
7182;BME280;3632;42.724;23.298;2023-05-11T01:47:21;95600.16;;;10.71;78.71
7182;BME280;3632;42.724;23.298;2023-05-11T01:49:49;95597.84;;;10.68;79.52
7182;BME280;3632;42.724;23.298;2023-05-11T01:52:18;95608.59;;;10.61;80.20
7182;BME280;3632;42.724;23.298;2023-05-11T01:54:47;95613.00;;;10.70;79.48
7182;BME280;3632;42.724;23.298;2023-05-11T01:57:16;95459.63;;;9.73;79.42
7182;BME280;3632;42.724;23.298;2023-05-11T01:59:44;95613.16;;;10.79;79.66
7182;BME280;3632;42.724;23.298;2023-05-11T02:02:13;95612.81;;;10.73;80.15
7182;BME280;3632;42.724;23.298;2023-05-11T02:04:43;95594.25;;;10.71;79.32
7182;BME280;3632;42.724;23.298;2023-05-11T02:07:12;95609.19;;;10.64;79.57
7182;BME280;3632;42.724;23.298;2023-05-11T02:09:41;95603.28;;;10.64;79.39
7182;BME280;3632;42.724;23.298;2023-05-11T02:12:09;95604.41;;;10.60;80.03
7182;BME280;3632;42.724;23.298;2023-05-11T02:14:36;95592.94;;;10.54;79.47
7182;BME280;3632;42.724;23.298;2023-05-11T02:17:05;95597.69;;;10.59;80.39
7182;BME280;3632;42.724;23.298;2023-05-11T02:19:33;95597.13;;;10.66;80.19
7182;BME280;3632;42.724;23.298;2023-05-11T02:22:02;95590.88;;;10.59;79.83
7182;BME280;3632;42.724;23.298;2023-05-11T02:24:30;95596.66;;;10.61;80.11
7182;BME280;3632;42.724;23.298;2023-05-11T02:26:58;95598.41;;;10.61;80.88
7182;BME280;3632;42.724;23.298;2023-05-11T02:29:25;95587.84;;;10.54;81.07
7182;BME280;3632;42.724;23.298;2023-05-11T02:31:56;95593.50;;;10.46;80.59
7182;BME280;3632;42.724;23.298;2023-05-11T02:34:26;95536.25;;;10.04;81.72
7182;BME280;3632;42.724;23.298;2023-05-11T02:36:56;95594.97;;;10.38;80.94
7182;BME280;3632;42.724;23.298;2023-05-11T02:39:30;95598.19;;;10.40;81.09
7182;BME280;3632;42.724;23.298;2023-05-11T02:42:01;95628.69;;;10.41;81.77
7182;BME280;3632;42.724;23.298;2023-05-11T02:44:31;95596.22;;;10.32;81.18
7182;BME280;3632;42.724;23.298;2023-05-11T02:47:02;95600.41;;;10.33;81.99
7182;BME280;3632;42.724;23.298;2023-05-11T02:49:31;95547.25;;;10.05;81.76
7182;BME280;3632;42.724;23.298;2023-05-11T02:52:02;95603.44;;;10.38;81.60
7182;BME280;3632;42.724;23.298;2023-05-11T02:54:31;95245.22;;;8.18;81.67
7182;BME280;3632;42.724;23.298;2023-05-11T02:56:59;95585.81;;;10.35;81.57
7182;BME280;3632;42.724;23.298;2023-05-11T02:59:29;95581.84;;;10.31;82.01
7182;BME280;3632;42.724;23.298;2023-05-11T03:01:57;95589.63;;;10.30;82.42
7182;BME280;3632;42.724;23.298;2023-05-11T03:04:25;95589.78;;;10.39;81.89
7182;BME280;3632;42.724;23.298;2023-05-11T03:06:52;95584.75;;;10.27;81.90
7182;BME280;3632;42.724;23.298;2023-05-11T03:09:18;95675.03;;;10.10;82.44
7182;BME280;3632;42.724;23.298;2023-05-11T03:11:48;95587.34;;;10.14;82.81
7182;BME280;3632;42.724;23.298;2023-05-11T03:14:16;95532.69;;;9.83;82.95
7182;BME280;3632;42.724;23.298;2023-05-11T03:16:44;95595.06;;;10.13;83.00
7182;BME280;3632;42.724;23.298;2023-05-11T03:19:11;95600.47;;;10.21;82.46
7182;BME280;3632;42.724;23.298;2023-05-11T03:21:39;95543.34;;;9.88;83.04
7182;BME280;3632;42.724;23.298;2023-05-11T03:24:06;95589.22;;;10.23;82.71
7182;BME280;3632;42.724;23.298;2023-05-11T03:26:34;95411.75;;;8.95;83.55
7182;BME280;3632;42.724;23.298;2023-05-11T03:29:03;95597.94;;;10.08;84.02
7182;BME280;3632;42.724;23.298;2023-05-11T03:31:29;95600.97;;;10.13;83.56
7182;BME280;3632;42.724;23.298;2023-05-11T03:33:56;95523.44;;;9.22;82.81
7182;BME280;3632;42.724;23.298;2023-05-11T03:36:25;95604.84;;;10.19;83.58
7182;BME280;3632;42.724;23.298;2023-05-11T03:38:53;95592.53;;;10.13;83.51
7182;BME280;3632;42.724;23.298;2023-05-11T03:41:22;95607.06;;;10.23;83.36
7182;BME280;3632;42.724;23.298;2023-05-11T03:43:51;95604.50;;;10.23;83.42
7182;BME280;3632;42.724;23.298;2023-05-11T03:46:21;95706.31;;;10.12;83.84
7182;BME280;3632;42.724;23.298;2023-05-11T03:48:49;95603.97;;;10.07;84.23
7182;BME280;3632;42.724;23.298;2023-05-11T03:51:16;95592.94;;;10.06;84.64
7182;BME280;3632;42.724;23.298;2023-05-11T03:53:43;95590.03;;;10.00;85.13
7182;BME280;3632;42.724;23.298;2023-05-11T03:56:10;95600.97;;;10.13;84.35
7182;BME280;3632;42.724;23.298;2023-05-11T03:58:37;95609.75;;;10.09;85.44
7182;BME280;3632;42.724;23.298;2023-05-11T04:01:06;95612.50;;;10.06;85.46
7182;BME280;3632;42.724;23.298;2023-05-11T04:03:46;95614.47;;;10.02;85.46
7182;BME280;3632;42.724;23.298;2023-05-11T04:06:13;95606.22;;;9.99;86.45
7182;BME280;3632;42.724;23.298;2023-05-11T04:08:40;95441.31;;;8.96;86.09
7182;BME280;3632;42.724;23.298;2023-05-11T04:11:07;95509.22;;;9.20;86.63
7182;BME280;3632;42.724;23.298;2023-05-11T04:13:34;95622.16;;;9.90;87.27
7182;BME280;3632;42.724;23.298;2023-05-11T04:16:01;95617.50;;;9.84;88.16
7182;BME280;3632;42.724;23.298;2023-05-11T04:18:28;95483.84;;;8.94;87.96
7182;BME280;3632;42.724;23.298;2023-05-11T04:20:56;95627.28;;;9.77;88.48
7182;BME280;3632;42.724;23.298;2023-05-11T04:23:24;95626.88;;;9.83;88.29
7182;BME280;3632;42.724;23.298;2023-05-11T04:25:54;95636.47;;;9.80;88.66
7182;BME280;3632;42.724;23.298;2023-05-11T04:28:22;95587.31;;;9.67;88.73
7182;BME280;3632;42.724;23.298;2023-05-11T04:30:52;95638.84;;;9.94;88.54
7182;BME280;3632;42.724;23.298;2023-05-11T04:33:19;95600.63;;;9.70;89.41
7182;BME280;3632;42.724;23.298;2023-05-11T04:35:48;95515.94;;;9.21;89.25
7182;BME280;3632;42.724;23.298;2023-05-11T04:38:17;95634.97;;;10.01;88.89
7182;BME280;3632;42.724;23.298;2023-05-11T04:40:44;95678.69;;;9.82;88.79
7182;BME280;3632;42.724;23.298;2023-05-11T04:43:12;95335.22;;;7.89;89.62
7182;BME280;3632;42.724;23.298;2023-05-11T04:45:39;95653.78;;;9.75;90.16
7182;BME280;3632;42.724;23.298;2023-05-11T04:48:06;95618.84;;;9.77;89.80
7182;BME280;3632;42.724;23.298;2023-05-11T04:50:33;95318.53;;;7.22;90.12
7182;BME280;3632;42.724;23.298;2023-05-11T04:53:02;95633.75;;;9.94;89.49
7182;BME280;3632;42.724;23.298;2023-05-11T04:55:30;95637.25;;;9.93;90.53
7182;BME280;3632;42.724;23.298;2023-05-11T04:57:57;95686.03;;;9.87;91.09
7182;BME280;3632;42.724;23.298;2023-05-11T05:00:24;95657.75;;;10.02;90.82
7182;BME280;3632;42.724;23.298;2023-05-11T05:02:51;95649.56;;;10.10;90.93
7182;BME280;3632;42.724;23.298;2023-05-11T05:05:18;95652.47;;;10.05;90.21
7182;BME280;3632;42.724;23.298;2023-05-11T05:07:44;95135.66;;;6.77;90.02
7182;BME280;3632;42.724;23.298;2023-05-11T05:10:11;95652.47;;;10.05;90.33
7182;BME280;3632;42.724;23.298;2023-05-11T05:12:40;95650.72;;;10.06;90.17
7182;BME280;3632;42.724;23.298;2023-05-11T05:15:07;95654.66;;;10.10;90.56
7182;BME280;3632;42.724;23.298;2023-05-11T05:17:34;95650.81;;;10.17;90.91
7182;BME280;3632;42.724;23.298;2023-05-11T05:20:01;95097.75;;;6.63;89.63
7182;BME280;3632;42.724;23.298;2023-05-11T05:22:28;95642.16;;;10.07;89.89
7182;BME280;3632;42.724;23.298;2023-05-11T05:24:55;95639.59;;;10.07;89.99
7182;BME280;3632;42.724;23.298;2023-05-11T05:27:22;95629.69;;;9.91;89.95
7182;BME280;3632;42.724;23.298;2023-05-11T05:29:50;95666.72;;;10.32;89.29
7182;BME280;3632;42.724;23.298;2023-05-11T05:32:17;95657.34;;;10.32;89.64
7182;BME280;3632;42.724;23.298;2023-05-11T05:34:44;95015.59;;;6.42;88.55
7182;BME280;3632;42.724;23.298;2023-05-11T05:37:12;95651.13;;;10.36;89.69
7182;BME280;3632;42.724;23.298;2023-05-11T05:39:39;95695.69;;;10.31;89.82
7182;BME280;3632;42.724;23.298;2023-05-11T05:42:06;95074.25;;;6.74;89.78
7182;BME280;3632;42.724;23.298;2023-05-11T05:44:33;95662.41;;;10.21;89.80
7182;BME280;3632;42.724;23.298;2023-05-11T05:47:01;95663.22;;;10.45;89.07
7182;BME280;3632;42.724;23.298;2023-05-11T05:49:28;95548.78;;;9.84;89.08
7182;BME280;3632;42.724;23.298;2023-05-11T05:51:55;95665.53;;;10.48;88.20
7182;BME280;3632;42.724;23.298;2023-05-11T05:54:22;95668.06;;;10.72;87.87
7182;BME280;3632;42.724;23.298;2023-05-11T05:56:49;95679.22;;;10.47;89.00
7182;BME280;3632;42.724;23.298;2023-05-11T05:59:16;95705.47;;;10.61;89.40
7182;BME280;3632;42.724;23.298;2023-05-11T06:01:45;95678.00;;;10.64;88.66
7182;BME280;3632;42.724;23.298;2023-05-11T06:04:14;95671.56;;;10.47;88.22
7182;BME280;3632;42.724;23.298;2023-05-11T06:06:41;95673.06;;;10.50;87.65
7182;BME280;3632;42.724;23.298;2023-05-11T06:09:08;95676.41;;;10.74;88.17
7182;BME280;3632;42.724;23.298;2023-05-11T06:11:35;95679.28;;;10.70;87.44
7182;BME280;3632;42.724;23.298;2023-05-11T06:14:02;95682.47;;;10.84;88.21
7182;BME280;3632;42.724;23.298;2023-05-11T06:16:29;95121.84;;;7.19;86.25
7182;BME280;3632;42.724;23.298;2023-05-11T06:18:56;95450.06;;;8.92;86.78
7182;BME280;3632;42.724;23.298;2023-05-11T06:21:24;95273.94;;;8.19;85.74
7182;BME280;3632;42.724;23.298;2023-05-11T06:23:51;95347.19;;;8.61;87.46
7182;BME280;3632;42.724;23.298;2023-05-11T06:26:18;95697.69;;;10.62;87.25
7182;BME280;3632;42.724;23.298;2023-05-11T06:28:45;95698.13;;;10.56;87.05
7182;BME280;3632;42.724;23.298;2023-05-11T06:31:12;95743.47;;;10.27;88.43
7182;BME280;3632;42.724;23.298;2023-05-11T06:33:39;95631.78;;;9.74;88.48
7182;BME280;3632;42.724;23.298;2023-05-11T06:36:07;95573.72;;;9.42;87.74
7182;BME280;3632;42.724;23.298;2023-05-11T06:38:35;95707.47;;;10.08;89.11
7182;BME280;3632;42.724;23.298;2023-05-11T06:41:02;95705.97;;;9.93;92.55
7182;BME280;3632;42.724;23.298;2023-05-11T06:43:29;95519.94;;;8.36;92.18
7182;BME280;3632;42.724;23.298;2023-05-11T06:46:07;95414.19;;;8.10;92.94
7182;BME280;3632;42.724;23.298;2023-05-11T06:48:37;94886.22;;;4.79;92.73
7182;BME280;3632;42.724;23.298;2023-05-11T06:51:04;95411.97;;;8.18;92.38
7182;BME280;3632;42.724;23.298;2023-05-11T06:53:30;95700.13;;;10.16;91.00
7182;BME280;3632;42.724;23.298;2023-05-11T06:55:58;95424.41;;;7.31;90.79
7182;BME280;3632;42.724;23.298;2023-05-11T06:58:25;95699.91;;;10.06;91.97
7182;BME280;3632;42.724;23.298;2023-05-11T07:00:52;95703.50;;;10.40;91.90
7182;BME280;3632;42.724;23.298;2023-05-11T07:03:19;95695.28;;;10.72;88.41
7182;BME280;3632;42.724;23.298;2023-05-11T07:05:45;95698.13;;;10.91;86.22
7182;BME280;3632;42.724;23.298;2023-05-11T07:08:12;95693.25;;;10.88;84.70
7182;BME280;3632;42.724;23.298;2023-05-11T07:10:39;95703.38;;;11.00;84.45
7182;BME280;3632;42.724;23.298;2023-05-11T07:13:08;95699.16;;;11.23;83.39
7182;BME280;3632;42.724;23.298;2023-05-11T07:15:35;95699.19;;;11.45;82.01
7182;BME280;3632;42.724;23.298;2023-05-11T07:18:02;95627.22;;;10.50;81.35
7182;BME280;3632;42.724;23.298;2023-05-11T07:20:31;95706.84;;;11.57;79.80
7182;BME280;3632;42.724;23.298;2023-05-11T07:23:00;95447.84;;;9.24;79.21
7182;BME280;3632;42.724;23.298;2023-05-11T07:25:27;95691.28;;;11.60;79.71
7182;BME280;3632;42.724;23.298;2023-05-11T07:27:54;95702.88;;;11.64;79.07
7182;BME280;3632;42.724;23.298;2023-05-11T07:30:22;95331.47;;;9.04;78.10
7182;BME280;3632;42.724;23.298;2023-05-11T07:32:49;95706.97;;;11.88;77.43
7182;BME280;3632;42.724;23.298;2023-05-11T07:35:16;95705.94;;;11.91;75.25
7182;BME280;3632;42.724;23.298;2023-05-11T07:37:43;95703.81;;;12.07;77.81
7182;BME280;3632;42.724;23.298;2023-05-11T07:40:10;95709.50;;;12.22;75.60
7182;BME280;3632;42.724;23.298;2023-05-11T07:42:37;95467.03;;;10.68;74.17
7182;BME280;3632;42.724;23.298;2023-05-11T07:45:04;95699.66;;;12.49;74.05
7182;BME280;3632;42.724;23.298;2023-05-11T07:47:32;95671.13;;;12.33;72.36
7182;BME280;3632;42.724;23.298;2023-05-11T07:49:59;95688.69;;;12.58;71.89
7182;BME280;3632;42.724;23.298;2023-05-11T07:52:26;95696.16;;;12.07;72.20
7182;BME280;3632;42.724;23.298;2023-05-11T07:54:53;95707.38;;;12.70;71.82
7182;BME280;3632;42.724;23.298;2023-05-11T07:57:20;95612.75;;;12.17;71.05
7182;BME280;3632;42.724;23.298;2023-05-11T07:59:47;95369.69;;;10.63;69.87
7182;BME280;3632;42.724;23.298;2023-05-11T08:02:14;95385.88;;;10.84;70.17
7182;BME280;3632;42.724;23.298;2023-05-11T08:04:42;95721.78;;;12.71;70.80
7182;BME280;3632;42.724;23.298;2023-05-11T08:07:09;95701.22;;;12.93;70.32
7182;BME280;3632;42.724;23.298;2023-05-11T08:09:36;95701.38;;;13.12;71.07
7182;BME280;3632;42.724;23.298;2023-05-11T08:12:03;95568.09;;;13.04;81.17
7182;BME280;3632;42.724;23.298;2023-05-11T08:14:37;95697.19;;;13.83;68.44
7182;BME280;3632;42.724;23.298;2023-05-11T08:17:03;95737.34;;;13.52;69.14
7182;BME280;3632;42.724;23.298;2023-05-11T08:19:30;95703.50;;;13.49;68.52
7182;BME280;3632;42.724;23.298;2023-05-11T08:21:59;95708.34;;;13.52;68.81
7182;BME280;3632;42.724;23.298;2023-05-11T08:24:26;95700.34;;;13.66;70.09
7182;BME280;3632;42.724;23.298;2023-05-11T08:26:53;95697.19;;;13.83;70.24
7182;BME280;3632;42.724;23.298;2023-05-11T08:29:21;95640.41;;;13.48;67.22
7182;BME280;3632;42.724;23.298;2023-05-11T08:31:48;95661.16;;;13.45;68.02
7182;BME280;3632;42.724;23.298;2023-05-11T08:34:15;95425.44;;;11.96;66.52
7182;BME280;3632;42.724;23.298;2023-05-11T08:36:42;95698.72;;;14.05;66.24
7182;BME280;3632;42.724;23.298;2023-05-11T08:39:11;95699.78;;;14.02;67.16
7182;BME280;3632;42.724;23.298;2023-05-11T08:41:38;95281.31;;;10.95;67.48
7182;BME280;3632;42.724;23.298;2023-05-11T08:44:05;95643.63;;;12.78;71.18
7182;BME280;3632;42.724;23.298;2023-05-11T08:46:34;95755.09;;;13.23;72.33
7182;BME280;3632;42.724;23.298;2023-05-11T08:49:02;95708.00;;;13.36;69.67
7182;BME280;3632;42.724;23.298;2023-05-11T08:51:28;95622.13;;;12.28;68.81
7182;BME280;3632;42.724;23.298;2023-05-11T08:53:57;95673.53;;;12.98;70.84
7182;BME280;3632;42.724;23.298;2023-05-11T08:56:28;95708.84;;;13.46;69.06
7182;BME280;3632;42.724;23.298;2023-05-11T08:58:56;95705.28;;;13.58;68.60
7182;BME280;3632;42.724;23.298;2023-05-11T09:01:23;95333.00;;;11.29;68.57
7182;BME280;3632;42.724;23.298;2023-05-11T09:03:53;95551.25;;;11.98;68.78
7182;BME280;3632;42.724;23.298;2023-05-11T09:06:22;95693.56;;;13.35;69.12
7182;BME280;3632;42.724;23.298;2023-05-11T09:08:50;95724.56;;;13.32;69.32
7182;BME280;3632;42.724;23.298;2023-05-11T09:11:17;95690.72;;;13.58;70.02
7182;BME280;3632;42.724;23.298;2023-05-11T09:13:45;95400.19;;;11.82;69.41
7182;BME280;3632;42.724;23.298;2023-05-11T09:16:13;95682.38;;;13.96;69.30
7182;BME280;3632;42.724;23.298;2023-05-11T09:18:46;95609.84;;;13.25;67.08
7182;BME280;3632;42.724;23.298;2023-05-11T09:21:14;95315.06;;;11.19;68.14
7182;BME280;3632;42.724;23.298;2023-05-11T09:23:40;95440.69;;;11.43;68.66
7182;BME280;3632;42.724;23.298;2023-05-11T09:26:13;95688.19;;;13.98;67.65
7182;BME280;3632;42.724;23.298;2023-05-11T09:28:49;95601.78;;;13.60;68.57
7182;BME280;3632;42.724;23.298;2023-05-11T09:31:35;95689.44;;;14.13;66.72
7182;BME280;3632;42.724;23.298;2023-05-11T09:34:11;95689.25;;;14.36;68.06
7182;BME280;3632;42.724;23.298;2023-05-11T09:36:38;95639.22;;;13.92;67.66
7182;BME280;3632;42.724;23.298;2023-05-11T09:39:05;95657.72;;;14.14;68.70
7182;BME280;3632;42.724;23.298;2023-05-11T09:41:32;95696.25;;;14.34;67.83
7182;BME280;3632;42.724;23.298;2023-05-11T09:44:11;95604.69;;;14.05;67.07
7182;BME280;3632;42.724;23.298;2023-05-11T09:46:39;95682.53;;;14.54;67.86
7182;BME280;3632;42.724;23.298;2023-05-11T09:49:07;95674.94;;;14.81;69.37
7182;BME280;3632;42.724;23.298;2023-05-11T09:51:35;95626.09;;;14.44;66.92
7182;BME280;3632;42.724;23.298;2023-05-11T09:54:15;95677.94;;;14.67;67.78
7182;BME280;3632;42.724;23.298;2023-05-11T09:56:47;95680.63;;;14.56;67.49
7182;BME280;3632;42.724;23.298;2023-05-11T09:59:16;95674.13;;;14.52;66.30
7182;BME280;3632;42.724;23.298;2023-05-11T10:01:45;95636.19;;;14.65;67.17
7182;BME280;3632;42.724;23.298;2023-05-11T10:04:15;95341.47;;;12.43;65.70
7182;BME280;3632;42.724;23.298;2023-05-11T10:06:46;95666.84;;;14.57;66.30
7182;BME280;3632;42.724;23.298;2023-05-11T10:09:15;95140.59;;;11.31;66.25
7182;BME280;3632;42.724;23.298;2023-05-11T10:11:44;95653.75;;;14.60;67.05
7182;BME280;3632;42.724;23.298;2023-05-11T10:14:12;95656.06;;;14.63;67.74
7182;BME280;3632;42.724;23.298;2023-05-11T10:16:42;95248.44;;;11.84;65.66
7182;BME280;3632;42.724;23.298;2023-05-11T10:19:10;95647.13;;;14.77;64.44
7182;BME280;3632;42.724;23.298;2023-05-11T10:21:38;95646.34;;;14.57;68.05
7182;BME280;3632;42.724;23.298;2023-05-11T10:24:06;95643.66;;;14.68;66.17
7182;BME280;3632;42.724;23.298;2023-05-11T10:26:33;95664.41;;;14.65;64.13
7182;BME280;3632;42.724;23.298;2023-05-11T10:29:00;95642.81;;;14.48;66.26
7182;BME280;3632;42.724;23.298;2023-05-11T10:31:28;95602.88;;;14.36;71.67
7182;BME280;3632;42.724;23.298;2023-05-11T10:33:57;95654.84;;;14.67;67.76
7182;BME280;3632;42.724;23.298;2023-05-11T10:36:26;95631.63;;;14.49;64.96
7182;BME280;3632;42.724;23.298;2023-05-11T10:38:53;95629.16;;;14.77;66.58
7182;BME280;3632;42.724;23.298;2023-05-11T10:41:44;95628.06;;;15.45;64.54
7182;BME280;3632;42.724;23.298;2023-05-11T10:44:34;95623.97;;;15.62;63.42
7182;BME280;3632;42.724;23.298;2023-05-11T10:47:19;95621.28;;;15.90;62.53
7182;BME280;3632;42.724;23.298;2023-05-11T10:50:09;95570.72;;;15.54;63.44
7182;BME280;3632;42.724;23.298;2023-05-11T10:52:51;95669.03;;;15.83;60.58
7182;BME280;3632;42.724;23.298;2023-05-11T10:55:30;95631.38;;;16.19;60.85
7182;BME280;3632;42.724;23.298;2023-05-11T10:58:06;95566.75;;;15.69;60.76
7182;BME280;3632;42.724;23.298;2023-05-11T11:01:17;95625.06;;;16.49;60.24
7182;BME280;3632;42.724;23.298;2023-05-11T11:03:57;95520.34;;;16.06;64.46
7182;BME280;3632;42.724;23.298;2023-05-11T11:06:28;95624.94;;;17.12;60.80
7182;BME280;3632;42.724;23.298;2023-05-11T11:08:56;95509.47;;;16.56;59.39
7182;BME280;3632;42.724;23.298;2023-05-11T11:11:35;95369.66;;;15.34;59.41
7182;BME280;3632;42.724;23.298;2023-05-11T11:14:04;95548.63;;;16.59;58.02
7182;BME280;3632;42.724;23.298;2023-05-11T11:16:34;95609.63;;;17.36;60.61
7182;BME280;3632;42.724;23.298;2023-05-11T11:22:04;95612.25;;;16.93;55.59
7182;BME280;3632;42.724;23.298;2023-05-11T11:24:44;95612.50;;;16.46;58.52
7182;BME280;3632;42.724;23.298;2023-05-11T11:27:13;95614.03;;;16.92;61.94
7182;BME280;3632;42.724;23.298;2023-05-11T11:29:40;95278.34;;;14.96;57.93
7182;BME280;3632;42.724;23.298;2023-05-11T11:32:25;95598.72;;;17.16;59.14
7182;BME280;3632;42.724;23.298;2023-05-11T11:34:55;95554.03;;;16.74;58.35
7182;BME280;3632;42.724;23.298;2023-05-11T11:37:24;95612.25;;;16.93;58.63
7182;BME280;3632;42.724;23.298;2023-05-11T11:39:57;95516.66;;;16.44;59.75
7182;BME280;3632;42.724;23.298;2023-05-11T11:42:33;95498.09;;;15.97;58.09
7182;BME280;3632;42.724;23.298;2023-05-11T11:45:25;95601.34;;;16.37;61.63
7182;BME280;3632;42.724;23.298;2023-05-11T11:48:12;95627.19;;;16.18;60.06
7182;BME280;3632;42.724;23.298;2023-05-11T11:50:43;95608.41;;;15.90;60.60
7182;BME280;3632;42.724;23.298;2023-05-11T11:56:51;95596.09;;;15.67;69.37
7182;BME280;3632;42.724;23.298;2023-05-11T11:59:21;95405.88;;;14.03;64.93
7182;BME280;3632;42.724;23.298;2023-05-11T12:01:50;95601.34;;;15.92;63.14
7182;BME280;3632;42.724;23.298;2023-05-11T12:04:38;95641.16;;;16.51;68.85
7182;BME280;3632;42.724;23.298;2023-05-11T12:07:09;95652.34;;;15.97;60.85
7182;BME280;3632;42.724;23.298;2023-05-11T12:09:40;95153.72;;;13.32;61.07
7182;BME280;3632;42.724;23.298;2023-05-11T12:12:11;95567.53;;;16.15;60.91
7182;BME280;3632;42.724;23.298;2023-05-11T12:14:39;95320.22;;;13.20;59.71
7182;BME280;3632;42.724;23.298;2023-05-11T12:17:14;95459.53;;;14.24;63.84
7182;BME280;3632;42.724;23.298;2023-05-11T12:19:42;95398.50;;;13.52;63.26
7182;BME280;3632;42.724;23.298;2023-05-11T12:22:11;94990.38;;;10.98;65.89
7182;BME280;3632;42.724;23.298;2023-05-11T12:24:41;95575.56;;;14.74;63.76
7182;BME280;3632;42.724;23.298;2023-05-11T12:27:08;95576.41;;;14.55;64.40
7182;BME280;3632;42.724;23.298;2023-05-11T12:29:35;95586.41;;;14.68;65.31
7182;BME280;3632;42.724;23.298;2023-05-11T12:32:04;95484.63;;;13.43;65.57
7182;BME280;3632;42.724;23.298;2023-05-11T12:34:30;95568.31;;;14.50;64.44
7182;BME280;3632;42.724;23.298;2023-05-11T12:36:58;95324.16;;;12.56;65.64
7182;BME280;3632;42.724;23.298;2023-05-11T12:39:26;95577.47;;;14.62;64.18
7182;BME280;3632;42.724;23.298;2023-05-11T12:41:55;95323.88;;;12.59;65.48
7182;BME280;3632;42.724;23.298;2023-05-11T12:44:24;95571.25;;;14.26;67.40
7182;BME280;3632;42.724;23.298;2023-05-11T12:46:54;95451.75;;;13.48;66.05
7182;BME280;3632;42.724;23.298;2023-05-11T12:49:22;95307.13;;;12.35;65.41
7182;BME280;3632;42.724;23.298;2023-05-11T12:51:59;95569.06;;;13.83;65.82
7182;BME280;3632;42.724;23.298;2023-05-11T12:54:29;95229.09;;;11.10;66.23
7182;BME280;3632;42.724;23.298;2023-05-11T12:56:58;95297.78;;;11.64;66.99
7182;BME280;3632;42.724;23.298;2023-05-11T12:59:31;95134.84;;;11.09;67.55
7182;BME280;3632;42.724;23.298;2023-05-11T13:02:19;95549.66;;;13.90;67.34
7182;BME280;3632;42.724;23.298;2023-05-11T13:04:47;95554.38;;;13.85;67.38
7182;BME280;3632;42.724;23.298;2023-05-11T13:07:23;95548.41;;;13.75;67.01
7182;BME280;3632;42.724;23.298;2023-05-11T13:09:55;95510.09;;;13.54;66.21
7182;BME280;3632;42.724;23.298;2023-05-11T13:12:24;95469.47;;;12.60;66.49
7182;BME280;3632;42.724;23.298;2023-05-11T13:15:03;95536.94;;;13.79;69.63
7182;BME280;3632;42.724;23.298;2023-05-11T13:17:32;95534.38;;;13.79;66.89
7182;BME280;3632;42.724;23.298;2023-05-11T13:20:19;95541.00;;;13.72;67.46
7182;BME280;3632;42.724;23.298;2023-05-11T13:22:49;95541.41;;;13.96;66.67
7182;BME280;3632;42.724;23.298;2023-05-11T13:25:18;95538.84;;;13.96;66.13
7182;BME280;3632;42.724;23.298;2023-05-11T13:27:47;95539.81;;;13.86;66.60
7182;BME280;3632;42.724;23.298;2023-05-11T13:30:14;95465.47;;;13.47;67.17
7182;BME280;3632;42.724;23.298;2023-05-11T13:32:40;95532.53;;;13.91;68.48
7182;BME280;3632;42.724;23.298;2023-05-11T13:35:08;95515.25;;;13.93;66.49